Time;durP1;ratioP1;P1;durP2;ratioP2;P2;SDS_P1;SDS_P2;PMS_P1;PMS_P2;Temp;Humidity;BMP_temperature;BMP_pressure;BME280_temperature;BME280_humidity;BME280_pressure;Samples;Min_cycle;Max_cycle;Signal;HPM_P1;HPM_P2
2022/08/08 00:01:43;;;;;;;6.40;4.25;;;13.60;99.90;;;;;;4975859;28;90197;-34
2022/08/08 00:04:23;;;;;;;5.88;3.78;;;13.60;99.90;;;;;;5000267;28;89921;-35
2022/08/08 00:07:24;;;;;;;7.63;3.80;;;13.60;99.90;;;;;;4988374;28;91297;-32
2022/08/08 00:10:18;;;;;;;5.05;4.32;;;13.60;99.90;;;;;;5000366;28;88557;-31
2022/08/08 00:13:08;;;;;;;4.65;4.05;;;13.60;99.90;;;;;;4999731;28;90061;-30
2022/08/08 00:15:39;;;;;;;5.85;4.35;;;13.60;99.90;;;;;;5000602;28;90353;-34
2022/08/08 00:18:15;;;;;;;8.80;4.57;;;13.60;99.90;;;;;;4999933;28;89439;-31
2022/08/08 00:20:51;;;;;;;4.75;4.30;;;13.60;99.90;;;;;;5036981;22;89640;-31
2022/08/08 00:23:22;;;;;;;5.47;4.47;;;13.60;99.90;;;;;;4999605;28;90069;-33
2022/08/08 00:25:52;;;;;;;4.38;3.97;;;13.60;99.90;;;;;;5001073;28;90150;-34
2022/08/08 00:28:47;;;;;;;9.68;5.00;;;13.50;99.90;;;;;;4999572;28;89909;-32
2022/08/08 00:31:22;;;;;;;4.70;4.22;;;13.50;99.90;;;;;;4998189;28;89740;-35
2022/08/08 00:35:09;;;;;;;4.72;4.32;;;13.50;99.90;;;;;;5000203;28;90260;-31
2022/08/08 00:36:50;;;;;;;7.25;4.78;;;13.50;99.90;;;;;;4998796;28;91866;-32
2022/08/08 00:39:20;;;;;;;4.57;4.18;;;13.40;99.90;;;;;;5000687;28;90078;-34
2022/08/08 00:42:37;;;;;;;4.80;4.30;;;13.40;99.90;;;;;;5000014;28;89207;-30
2022/08/08 00:45:34;;;;;;;6.78;5.53;;;13.40;99.90;;;;;;4957245;28;88904;-33
2022/08/08 00:48:37;;;;;;;5.68;4.28;;;13.40;99.90;;;;;;5000419;28;90116;-32
2022/08/08 00:51:08;;;;;;;4.10;3.65;;;13.40;99.90;;;;;;4987920;28;89809;-33
2022/08/08 00:53:49;;;;;;;5.57;4.03;;;13.40;99.90;;;;;;5000265;28;88897;-33
2022/08/08 00:56:40;;;;;;;4.53;3.65;;;13.40;99.90;;;;;;5000355;28;90130;-32
2022/08/08 00:59:44;;;;;;;4.82;4.05;;;13.40;99.90;;;;;;4998417;28;90917;-30
2022/08/08 01:02:37;;;;;;;3.92;3.63;;;13.50;99.90;;;;;;4999800;28;90024;-33
2022/08/08 01:05:27;;;;;;;4.50;4.10;;;13.50;99.90;;;;;;4986265;28;88929;-32
2022/08/08 01:08:07;;;;;;;5.65;3.88;;;13.50;99.90;;;;;;4999301;28;90324;-29
2022/08/08 01:11:11;;;;;;;5.05;4.05;;;13.40;99.90;;;;;;4999724;28;89867;-33
2022/08/08 01:14:07;;;;;;;4.97;3.70;;;13.30;99.90;;;;;;4987984;28;89183;-30
2022/08/08 01:16:44;;;;;;;4.18;3.78;;;13.30;99.90;;;;;;4999495;28;88936;-32
2022/08/08 01:19:47;;;;;;;4.82;3.67;;;13.20;99.90;;;;;;4999439;28;90178;-33
2022/08/08 01:22:34;;;;;;;6.40;4.38;;;13.10;99.90;;;;;;4987923;28;89858;-34
2022/08/08 01:25:21;;;;;;;4.97;3.97;;;13.10;99.90;;;;;;4998620;28;89462;-30
2022/08/08 01:28:02;;;;;;;4.15;3.72;;;13.00;99.90;;;;;;4999668;28;89490;-32
2022/08/08 01:30:58;;;;;;;8.60;4.30;;;13.00;99.90;;;;;;4985554;28;90335;-32
2022/08/08 01:33:39;;;;;;;3.65;3.33;;;12.90;99.90;;;;;;4997530;28;89426;-32
2022/08/08 01:36:41;;;;;;;4.43;3.88;;;12.90;99.90;;;;;;4998997;28;91032;-33
2022/08/08 01:39:17;;;;;;;3.90;3.58;;;13.00;99.90;;;;;;4987605;28;88277;-31
2022/08/08 01:42:04;;;;;;;4.50;3.72;;;13.00;99.90;;;;;;4998785;28;90610;-29
2022/08/08 01:44:51;;;;;;;4.82;3.53;;;13.00;99.90;;;;;;4998640;28;89540;-31
2022/08/08 01:47:48;;;;;;;5.07;3.50;;;13.00;99.90;;;;;;4998968;28;89847;-29
2022/08/08 01:50:25;;;;;;;4.45;4.07;;;13.00;99.90;;;;;;4959498;28;89656;-35
2022/08/08 01:53:23;;;;;;;5.38;4.03;;;13.10;99.90;;;;;;4998606;28;90202;-33
2022/08/08 01:56:10;;;;;;;4.35;3.65;;;13.10;99.90;;;;;;4966520;28;89675;-32
2022/08/08 01:58:43;;;;;;;3.47;3.28;;;13.10;99.90;;;;;;4999126;28;89919;-35
2022/08/08 02:01:35;;;;;;;5.93;4.28;;;13.10;99.90;;;;;;4998039;28;90330;-32
2022/08/08 02:04:45;;;;;;;5.68;4.45;;;13.00;99.90;;;;;;4998955;28;89984;-30
2022/08/08 02:07:22;;;;;;;4.65;4.13;;;13.00;99.90;;;;;;4927947;28;89982;-31
2022/08/08 02:10:32;;;;;;;7.18;4.90;;;13.00;99.90;;;;;;4994747;28;89352;-31
2022/08/08 02:13:16;;;;;;;5.78;4.45;;;13.00;99.90;;;;;;4963742;28;89018;-33
2022/08/08 02:16:15;;;;;;;5.15;4.65;;;13.00;99.90;;;;;;4998245;28;90465;-31
2022/08/08 02:18:49;;;;;;;6.38;4.10;;;13.00;99.90;;;;;;4995244;28;89760;-29
2022/08/08 02:24:54;;;;;;;6.38;4.53;;;13.00;99.90;;;;;;4990552;28;89150;-33
2022/08/08 02:27:28;;;;;;;5.40;4.90;;;13.00;99.90;;;;;;4985297;28;91632;-30
2022/08/08 02:30:18;;;;;;;4.43;3.95;;;13.00;99.90;;;;;;4998290;28;90618;-35
2022/08/08 02:32:44;;;;;;;3.50;3.20;;;12.90;99.90;;;;;;4988579;28;90458;-30
2022/08/08 02:35:24;;;;;;;4.35;3.88;;;13.00;99.90;;;;;;4998400;28;87931;-34
2022/08/08 02:38:19;;;;;;;7.22;3.75;;;13.00;99.90;;;;;;5001636;28;90632;-33
2022/08/08 02:40:51;;;;;;;7.93;5.07;;;12.90;99.90;;;;;;5002145;28;90312;-31
2022/08/08 02:43:54;;;;;;;6.82;4.10;;;12.90;99.90;;;;;;5001851;28;89471;-31
2022/08/08 02:46:28;;;;;;;6.28;4.75;;;13.00;99.90;;;;;;4991032;28;88916;-32
2022/08/08 02:49:07;;;;;;;5.18;3.80;;;13.00;99.90;;;;;;5002167;28;90111;-30
2022/08/08 02:52:08;;;;;;;5.40;4.25;;;12.90;99.90;;;;;;5002234;28;89028;-29
2022/08/08 02:54:56;;;;;;;4.95;4.55;;;12.90;99.90;;;;;;4988462;28;89178;-34
2022/08/08 02:57:45;;;;;;;6.45;4.97;;;12.90;99.90;;;;;;5001084;28;88568;-32
2022/08/08 03:01:12;;;;;;;5.05;4.57;;;12.90;99.90;;;;;;5001592;28;90167;-33
2022/08/08 03:03:49;;;;;;;4.28;3.88;;;12.80;99.90;;;;;;4938751;28;89770;-30
2022/08/08 03:06:42;;;;;;;4.22;3.88;;;12.60;99.90;;;;;;5000261;28;90010;-35
2022/08/08 03:09:46;;;;;;;4.22;3.92;;;12.50;99.90;;;;;;4959585;28;89344;-32
2022/08/08 03:12:58;;;;;;;4.15;3.40;;;12.40;99.90;;;;;;4977280;28;90378;-34
2022/08/08 03:15:45;;;;;;;5.55;5.05;;;12.40;99.90;;;;;;5001579;28;89846;-30
2022/08/08 03:18:18;;;;;;;5.82;4.82;;;12.40;99.90;;;;;;5001170;28;89877;-31
2022/08/08 03:20:48;;;;;;;4.47;4.07;;;12.40;99.90;;;;;;4983626;28;88524;-32
2022/08/08 03:23:14;;;;;;;6.00;5.50;;;12.30;99.90;;;;;;4999849;28;90068;-32
2022/08/08 03:25:41;;;;;;;4.53;4.13;;;12.20;99.90;;;;;;5000566;28;90547;-31
2022/08/08 03:28:12;;;;;;;5.05;4.53;;;12.20;99.90;;;;;;5000854;28;91736;-29
2022/08/08 03:30:43;;;;;;;4.85;4.25;;;12.20;99.90;;;;;;5001597;28;88221;-31
2022/08/08 03:33:17;;;;;;;4.65;4.00;;;12.20;99.90;;;;;;5000889;28;88997;-34
2022/08/08 03:35:44;;;;;;;5.45;4.70;;;12.20;99.90;;;;;;5001593;28;89722;-30
2022/08/08 03:38:10;;;;;;;5.30;4.30;;;12.30;99.90;;;;;;5000695;28;88842;-30
2022/08/08 03:40:36;;;;;;;4.53;3.65;;;12.20;99.90;;;;;;5001296;28;88790;-33
2022/08/08 03:43:02;;;;;;;5.80;3.92;;;12.20;99.90;;;;;;5001294;28;90499;-33
2022/08/08 03:45:28;;;;;;;7.22;5.18;;;12.20;99.90;;;;;;5001576;28;90996;-31
2022/08/08 03:48:08;;;;;;;9.25;4.50;;;12.20;99.90;;;;;;5000393;28;89923;-30
2022/08/08 03:50:35;;;;;;;5.32;4.25;;;12.30;99.90;;;;;;5000153;28;89524;-33
2022/08/08 03:53:06;;;;;;;4.90;4.57;;;12.40;99.90;;;;;;5000998;28;90316;-36
2022/08/08 03:55:31;;;;;;;5.47;4.20;;;12.40;99.90;;;;;;5000377;28;89741;-31
2022/08/08 03:57:58;;;;;;;4.68;4.28;;;12.40;99.90;;;;;;5000666;28;89542;-31
2022/08/08 04:00:25;;;;;;;8.52;4.95;;;12.30;99.90;;;;;;5000923;28;89930;-29
2022/08/08 04:02:56;;;;;;;4.60;4.30;;;12.20;99.90;;;;;;5000061;28;90312;-30
2022/08/08 04:05:30;;;;;;;6.15;5.20;;;12.20;99.90;;;;;;4999944;28;90269;-32
2022/08/08 04:07:56;;;;;;;5.13;4.63;;;12.20;99.90;;;;;;5001038;28;89748;-30
2022/08/08 04:10:22;;;;;;;4.90;3.63;;;12.20;99.90;;;;;;5000301;28;89291;-32
2022/08/08 04:12:48;;;;;;;5.03;4.55;;;12.30;99.90;;;;;;4999840;28;90042;-33
2022/08/08 04:15:13;;;;;;;6.72;4.80;;;12.30;99.90;;;;;;4999862;28;90403;-33
2022/08/08 04:17:39;;;;;;;8.18;4.22;;;12.30;99.90;;;;;;5000345;28;90296;-30
2022/08/08 04:20:05;;;;;;;3.78;3.40;;;12.30;99.90;;;;;;5000680;28;88970;-31
2022/08/08 04:22:31;;;;;;;5.55;4.40;;;12.50;99.90;;;;;;4999722;28;90262;-31
2022/08/08 04:24:57;;;;;;;3.47;3.17;;;12.50;99.90;;;;;;5000075;28;89487;-36
2022/08/08 04:27:23;;;;;;;6.18;3.80;;;12.60;99.90;;;;;;5000056;28;89504;-29
2022/08/08 04:29:49;;;;;;;4.43;3.58;;;12.70;99.90;;;;;;5000603;28;89914;-30
2022/08/08 04:32:15;;;;;;;9.25;4.35;;;12.80;99.90;;;;;;5000352;28;90365;-30
2022/08/08 04:34:41;;;;;;;5.68;3.38;;;12.90;99.90;;;;;;5000029;28;89758;-29
2022/08/08 04:37:07;;;;;;;8.85;4.60;;;12.90;99.90;;;;;;4999804;28;89638;-31
2022/08/08 04:39:33;;;;;;;4.35;3.95;;;12.90;99.90;;;;;;5000061;28;90207;-32
2022/08/08 04:41:59;;;;;;;4.63;4.20;;;13.00;99.90;;;;;;4999714;28;90246;-31
2022/08/08 04:44:24;;;;;;;5.18;4.72;;;13.00;99.90;;;;;;5000196;28;89665;-33
2022/08/08 04:46:50;;;;;;;4.85;4.43;;;13.20;99.90;;;;;;4999516;28;89870;-31
2022/08/08 04:49:16;;;;;;;4.40;3.65;;;13.20;99.90;;;;;;4999275;28;88637;-31
2022/08/08 04:51:42;;;;;;;5.10;4.60;;;13.10;99.90;;;;;;5000426;28;91265;-32
2022/08/08 04:54:07;;;;;;;4.60;4.20;;;13.20;99.90;;;;;;4999474;28;89714;-31
2022/08/08 04:56:33;;;;;;;4.68;3.28;;;13.20;99.90;;;;;;4999775;28;88962;-33
2022/08/08 04:58:59;;;;;;;5.03;4.45;;;13.20;99.90;;;;;;4998342;28;87957;-31
2022/08/08 05:01:24;;;;;;;4.50;4.10;;;13.20;99.90;;;;;;4999721;28;90214;-31
2022/08/08 05:03:50;;;;;;;3.85;3.55;;;13.10;99.90;;;;;;4999369;28;90990;-31
2022/08/08 05:06:15;;;;;;;8.10;4.07;;;13.00;99.90;;;;;;4982950;28;90439;-30
2022/08/08 05:08:41;;;;;;;4.70;4.30;;;13.00;99.90;;;;;;4983570;28;89515;-31
2022/08/08 05:11:09;;;;;;;3.45;3.17;;;13.10;99.90;;;;;;4999068;28;90899;-30
2022/08/08 05:13:35;;;;;;;4.80;3.53;;;13.20;99.90;;;;;;4999458;28;89323;-31
2022/08/08 05:16:00;;;;;;;6.55;3.55;;;13.50;99.90;;;;;;4999846;28;89813;-30
2022/08/08 05:18:26;;;;;;;3.40;3.13;;;13.70;99.90;;;;;;4998849;28;87760;-29
2022/08/08 05:20:53;;;;;;;6.47;4.07;;;13.90;99.90;;;;;;4999822;28;89764;-31
2022/08/08 05:23:18;;;;;;;5.75;3.67;;;14.10;99.90;;;;;;4998451;28;89830;-32
2022/08/08 05:25:44;;;;;;;3.92;3.10;;;14.30;99.90;;;;;;5000220;28;89304;-30
2022/08/08 05:28:10;;;;;;;5.32;3.67;;;14.40;99.90;;;;;;4999033;28;87940;-30
2022/08/08 05:30:37;;;;;;;5.82;2.95;;;14.60;99.90;;;;;;4999641;28;90175;-32
2022/08/08 05:33:02;;;;;;;4.10;3.30;;;14.80;99.90;;;;;;4999220;28;90896;-32
2022/08/08 05:35:32;;;;;;;8.98;3.67;;;14.90;99.90;;;;;;4999814;28;89369;-30
2022/08/08 05:38:02;;;;;;;3.58;3.28;;;15.00;99.90;;;;;;4999702;28;87514;-32
2022/08/08 05:40:28;;;;;;;3.20;3.00;;;15.20;99.90;;;;;;5000223;28;90023;-31
2022/08/08 05:43:04;;;;;;;4.25;3.20;;;15.20;99.90;;;;;;4998044;28;90186;-30
2022/08/08 05:45:35;;;;;;;3.55;3.20;;;15.30;99.90;;;;;;5001326;28;90312;-33
2022/08/08 05:48:02;;;;;;;5.03;4.18;;;15.40;99.90;;;;;;4997161;28;89776;-34
2022/08/08 05:50:29;;;;;;;7.00;3.40;;;15.50;99.90;;;;;;4997917;28;90735;-30
2022/08/08 05:52:55;;;;;;;5.15;4.35;;;15.50;99.90;;;;;;4996259;28;90834;-34
2022/08/08 05:55:21;;;;;;;4.95;4.13;;;15.60;99.90;;;;;;4995729;28;90720;-32
2022/08/08 05:57:51;;;;;;;10.15;4.00;;;15.70;99.90;;;;;;5008961;28;87980;-30
2022/08/08 06:00:17;;;;;;;5.90;4.18;;;15.80;99.90;;;;;;5008586;28;90377;-32
2022/08/08 06:05:33;;;;;;;4.18;3.55;;;16.00;99.90;;;;;;5006869;28;89818;-31
2022/08/08 06:08:01;;;;;;;8.63;3.92;;;16.10;99.90;;;;;;4999487;28;88338;-30
2022/08/08 06:10:31;;;;;;;4.90;3.90;;;16.20;99.90;;;;;;4997720;28;90492;-32
2022/08/08 06:12:57;;;;;;;4.68;3.38;;;16.30;99.90;;;;;;5004257;28;88561;-32
2022/08/08 06:15:22;;;;;;;7.05;3.28;;;16.50;99.90;;;;;;5006294;28;89086;-31
2022/08/08 06:17:50;;;;;;;6.90;4.32;;;16.60;99.90;;;;;;5004603;28;88765;-33
2022/08/08 06:20:16;;;;;;;3.83;3.53;;;16.80;99.90;;;;;;5000393;28;90403;-31
2022/08/08 06:22:41;;;;;;;6.50;3.67;;;17.00;99.90;;;;;;5000554;28;90127;-34
2022/08/08 06:25:07;;;;;;;5.47;3.20;;;17.10;99.90;;;;;;5000678;28;89462;-31
2022/08/08 06:27:49;;;;;;;6.53;3.80;;;17.30;99.90;;;;;;5000838;28;89627;-33
2022/08/08 06:30:17;;;;;;;11.32;5.65;;;17.40;99.90;;;;;;5000345;28;89463;-32
2022/08/08 06:32:47;;;;;;;5.60;4.22;;;17.50;99.90;;;;;;5000278;28;89978;-34
2022/08/08 06:35:15;;;;;;;10.95;3.40;;;17.60;99.90;;;;;;4999822;28;89511;-34
2022/08/08 06:38:03;;;;;;;7.40;3.63;;;17.70;99.90;;;;;;5000137;28;89876;-32
2022/08/08 06:40:31;;;;;;;4.20;3.75;;;17.70;99.90;;;;;;4999949;28;90830;-31
2022/08/08 06:43:06;;;;;;;4.57;3.67;;;17.70;99.90;;;;;;4999244;28;90259;-33
2022/08/08 06:45:36;;;;;;;8.52;4.45;;;17.70;99.90;;;;;;4999077;28;90689;-32
2022/08/08 06:48:03;;;;;;;4.05;3.75;;;17.80;99.90;;;;;;4997578;28;89258;-32
2022/08/08 06:50:31;;;;;;;8.40;3.50;;;17.90;99.90;;;;;;4999870;28;89325;-29
2022/08/08 06:53:02;;;;;;;8.30;3.95;;;18.00;99.90;;;;;;5000030;28;89724;-33
2022/08/08 06:55:29;;;;;;;6.55;2.88;;;18.30;99.90;;;;;;4999483;28;89636;-32
2022/08/08 06:57:55;;;;;;;3.87;3.50;;;18.50;99.90;;;;;;4999577;28;88089;-32
2022/08/08 07:00:21;;;;;;;4.68;3.15;;;18.80;99.90;;;;;;4999084;28;90124;-32
2022/08/08 07:02:51;;;;;;;5.22;3.40;;;19.00;99.90;;;;;;5000064;28;90143;-33
2022/08/08 07:05:22;;;;;;;4.63;3.35;;;19.20;99.90;;;;;;4999497;28;89973;-34
2022/08/08 07:07:51;;;;;;;4.10;3.08;;;19.50;99.90;;;;;;4999711;28;89936;-35
2022/08/08 07:10:20;;;;;;;9.70;3.28;;;19.80;99.90;;;;;;4999155;28;90062;-32
2022/08/08 07:12:50;;;;;;;6.63;3.45;;;19.90;99.90;;;;;;4998346;28;90302;-34
2022/08/08 07:15:18;;;;;;;2.58;2.38;;;20.20;99.90;;;;;;4999204;28;89309;-31
2022/08/08 07:17:49;;;;;;;6.15;3.38;;;20.40;99.90;;;;;;4999817;28;89769;-32
2022/08/08 07:20:25;;;;;;;5.57;2.65;;;20.60;99.90;;;;;;4998356;28;90442;-34
2022/08/08 07:22:56;;;;;;;2.80;2.15;;;20.80;99.90;;;;;;4998401;28;89382;-31
2022/08/08 07:25:24;;;;;;;4.88;2.95;;;20.80;99.90;;;;;;4999397;28;90110;-31
2022/08/08 07:27:58;;;;;;;3.67;3.00;;;20.80;99.90;;;;;;4999475;28;88837;-33
2022/08/08 07:30:23;;;;;;;2.70;2.38;;;20.90;99.90;;;;;;4999204;28;89929;-31
2022/08/08 07:32:50;;;;;;;4.22;3.20;;;21.00;99.90;;;;;;4998639;28;90419;-33
2022/08/08 07:35:16;;;;;;;3.10;2.40;;;21.20;99.90;;;;;;4998616;28;90802;-31
2022/08/08 07:37:42;;;;;;;7.43;3.13;;;21.40;99.90;;;;;;4999121;28;89351;-32
2022/08/08 07:40:09;;;;;;;5.70;3.03;;;21.40;99.90;;;;;;4998856;28;88476;-33
2022/08/08 07:42:39;;;;;;;3.30;2.40;;;21.40;99.90;;;;;;4998609;28;89869;-33
2022/08/08 07:45:05;;;;;;;4.65;2.45;;;21.30;99.90;;;;;;4998620;28;89511;-32
2022/08/08 07:47:31;;;;;;;4.65;2.65;;;21.30;99.90;;;;;;4999252;28;89434;-33
2022/08/08 07:49:56;;;;;;;5.63;3.20;;;21.20;99.90;;;;;;4998351;28;89270;-33
2022/08/08 07:52:22;;;;;;;3.20;2.58;;;21.30;99.90;;;;;;4998646;28;89631;-35
2022/08/08 07:54:56;;;;;;;4.63;2.60;;;21.40;99.90;;;;;;4998615;28;89409;-33
2022/08/08 07:57:44;;;;;;;14.18;2.78;;;21.50;99.90;;;;;;4998148;28;90400;-33
2022/08/08 08:00:14;;;;;;;4.32;2.88;;;21.70;99.90;;;;;;4998562;28;90297;-31
2022/08/08 08:03:03;;;;;;;6.65;2.88;;;21.70;99.90;;;;;;5007239;28;89840;-31
2022/08/08 08:05:31;;;;;;;7.60;2.92;;;21.70;99.90;;;;;;5011818;28;89879;-31
2022/08/08 08:08:05;;;;;;;5.65;2.92;;;21.70;99.90;;;;;;5012785;28;88462;-34
2022/08/08 08:10:33;;;;;;;2.88;2.28;;;21.70;99.90;;;;;;5011613;28;90173;-32
2022/08/08 08:13:19;;;;;;;;;;;21.70;99.90;;;;;;5013105;28;89656;-33
2022/08/08 08:16:02;;;;;;;2.75;2.50;;;21.70;99.90;;;;;;5005855;28;88985;-30
2022/08/08 08:18:43;;;;;;;4.10;2.10;;;21.60;99.90;;;;;;5004999;28;89296;-33
2022/08/08 08:21:09;;;;;;;3.95;2.83;;;21.30;99.90;;;;;;5011113;28;91466;-35
2022/08/08 08:23:35;;;;;;;3.42;2.38;;;21.30;99.90;;;;;;5001837;28;90677;-32
2022/08/08 08:26:01;;;;;;;7.22;2.60;;;21.30;99.90;;;;;;5012202;28;90286;-33
2022/08/08 08:28:27;;;;;;;2.67;2.47;;;21.40;99.90;;;;;;5012202;28;87666;-31
2022/08/08 08:30:54;;;;;;;3.13;2.47;;;21.40;99.90;;;;;;5012703;28;89358;-32
2022/08/08 08:33:20;;;;;;;3.58;1.80;;;21.50;99.90;;;;;;5010369;28;89682;-33
2022/08/08 08:35:46;;;;;;;6.72;2.28;;;21.60;99.90;;;;;;5011912;28;89272;-30
2022/08/08 08:38:12;;;;;;;7.20;2.33;;;21.70;99.90;;;;;;5012245;28;88070;-31
2022/08/08 08:40:38;;;;;;;3.00;2.67;;;22.00;99.90;;;;;;5012364;28;90389;-32
2022/08/08 08:43:04;;;;;;;3.80;2.67;;;22.30;99.90;;;;;;5010519;28;88661;-33
2022/08/08 08:45:31;;;;;;;2.40;2.20;;;22.60;99.90;;;;;;4997440;28;89251;-33
2022/08/08 08:47:56;;;;;;;4.10;2.28;;;22.40;99.90;;;;;;4997578;28;90419;-33
2022/08/08 08:50:24;;;;;;;7.28;2.90;;;22.20;99.90;;;;;;4997250;28;90420;-34
2022/08/08 08:52:52;;;;;;;2.28;2.08;;;22.30;99.90;;;;;;4998166;28;89919;-31
2022/08/08 08:55:18;;;;;;;2.70;2.42;;;22.10;99.90;;;;;;4997780;28;89187;-31
2022/08/08 08:57:48;;;;;;;2.22;2.03;;;22.10;99.90;;;;;;4997579;28;89383;-33
2022/08/08 09:00:14;;;;;;;3.63;2.28;;;22.30;99.90;;;;;;4997593;28;90004;-32
2022/08/08 09:02:42;;;;;;;2.63;2.40;;;22.30;99.90;;;;;;4997859;28;89882;-35
2022/08/08 09:05:11;;;;;;;4.50;2.13;;;22.40;99.90;;;;;;4998429;28;89655;-33
2022/08/08 09:07:40;;;;;;;3.47;2.03;;;22.60;99.90;;;;;;4997603;28;88271;-34
2022/08/08 09:10:07;;;;;;;5.30;1.92;;;22.80;99.90;;;;;;4997825;28;89719;-31
2022/08/08 09:12:34;;;;;;;7.90;2.05;;;22.80;99.90;;;;;;4996789;28;91702;-34
2022/08/08 09:15:00;;;;;;;4.85;2.30;;;22.70;99.90;;;;;;4996813;28;90683;-32
2022/08/08 09:17:26;;;;;;;2.53;2.05;;;22.50;99.90;;;;;;4998345;28;87695;-34
2022/08/08 09:19:55;;;;;;;2.08;1.83;;;22.40;99.90;;;;;;4996379;28;89288;-32
2022/08/08 09:22:22;;;;;;;1.90;1.48;;;22.10;99.90;;;;;;4997910;28;89826;-32
2022/08/08 09:24:49;;;;;;;1.70;1.60;;;21.90;99.90;;;;;;5009532;28;89208;-32
2022/08/08 09:27:16;;;;;;;5.38;2.00;;;21.70;99.90;;;;;;5011364;28;88581;-32
2022/08/08 09:30:00;;;;;;;3.08;2.60;;;21.70;99.90;;;;;;4998139;28;90129;-33
2022/08/08 09:32:34;;;;;;;3.45;1.65;;;21.50;99.90;;;;;;4997308;28;90535;-32
2022/08/08 09:35:00;;;;;;;7.45;2.33;;;21.40;99.90;;;;;;4997201;28;89178;-31
2022/08/08 09:37:28;;;;;;;5.63;2.40;;;21.30;99.90;;;;;;4996756;28;89205;-34
2022/08/08 09:40:04;;;;;;;3.35;2.13;;;21.20;99.90;;;;;;4997741;28;89474;-30
2022/08/08 09:42:35;;;;;;;2.90;1.85;;;21.20;99.90;;;;;;4997192;28;90030;-31
2022/08/08 09:45:30;;;;;;;3.08;2.28;;;21.20;99.90;;;;;;4997198;28;89755;-34
2022/08/08 09:48:01;;;;;;;4.13;2.35;;;21.30;99.90;;;;;;4997313;28;89285;-31
2022/08/08 09:50:26;;;;;;;4.13;1.83;;;21.40;99.90;;;;;;5008248;28;90900;-31
2022/08/08 09:52:53;;;;;;;4.57;2.58;;;21.40;99.90;;;;;;4997276;28;89751;-31
2022/08/08 09:55:20;;;;;;;2.25;2.13;;;21.50;99.90;;;;;;4997241;28;89141;-34
2022/08/08 09:57:49;;;;;;;1.73;1.63;;;21.60;99.90;;;;;;4996898;28;89096;-32
2022/08/08 10:00:20;;;;;;;5.22;2.00;;;21.60;99.90;;;;;;4997035;28;90259;-32
2022/08/08 10:02:51;;;;;;;4.90;1.95;;;21.70;99.90;;;;;;4996628;28;90865;-31
2022/08/08 10:05:24;;;;;;;9.80;2.95;;;21.70;99.90;;;;;;4996641;28;90511;-35
2022/08/08 10:07:50;;;;;;;2.03;1.83;;;21.60;99.90;;;;;;4997756;28;88123;-32
2022/08/08 10:10:37;;;;;;;2.35;2.05;;;21.60;99.90;;;;;;4996404;28;90348;-32
2022/08/08 10:13:28;;;;;;;2.20;1.53;;;21.60;99.90;;;;;;4996352;28;89789;-30
2022/08/08 10:15:55;;;;;;;2.28;2.00;;;21.70;99.90;;;;;;4996235;28;89649;-36
2022/08/08 10:18:27;;;;;;;2.10;1.90;;;21.90;99.90;;;;;;4997011;28;89670;-35
2022/08/08 10:21:00;;;;;;;5.57;2.15;;;22.30;99.90;;;;;;4996815;28;90199;-31
2022/08/08 10:23:38;;;;;;;3.83;2.03;;;22.50;99.90;;;;;;4981950;28;89417;-31
2022/08/08 10:26:04;;;;;;;1.75;1.65;;;22.40;99.90;;;;;;4996124;28;89496;-33
2022/08/08 10:28:36;;;;;;;2.95;2.00;;;22.30;99.90;;;;;;4995686;28;88799;-33
2022/08/08 10:33:51;;;;;;;3.28;1.63;;;22.00;99.90;;;;;;4985173;28;89584;-33
2022/08/08 10:36:23;;;;;;;3.35;2.17;;;22.00;99.90;;;;;;4995675;28;89115;-34
2022/08/08 10:38:51;;;;;;;3.25;1.88;;;21.90;99.90;;;;;;4996809;28;89245;-33
2022/08/08 10:41:18;;;;;;;2.50;1.58;;;21.70;99.90;;;;;;4996492;28;88840;-34
2022/08/08 10:43:49;;;;;;;2.13;1.75;;;21.50;99.90;;;;;;4996112;28;88758;-33
2022/08/08 10:46:25;;;;;;;3.38;2.00;;;21.50;99.90;;;;;;4996615;28;89630;-33
2022/08/08 10:48:54;;;;;;;1.63;1.33;;;21.40;99.90;;;;;;4995906;28;89315;-32
2022/08/08 10:51:29;;;;;;;2.72;1.75;;;21.20;99.90;;;;;;4995134;28;90330;-31
2022/08/08 10:53:55;;;;;;;6.40;2.35;;;21.20;99.90;;;;;;4995332;28;89588;-32
2022/08/08 10:56:21;;;;;;;4.43;1.77;;;21.00;99.90;;;;;;4991378;28;89264;-32
2022/08/08 10:58:56;;;;;;;1.83;1.73;;;20.90;99.90;;;;;;4981138;28;89255;-33
2022/08/08 11:01:28;;;;;;;2.15;1.92;;;20.90;99.90;;;;;;4995679;28;90643;-31
2022/08/08 11:03:57;;;;;;;3.00;2.10;;;20.90;99.90;;;;;;4995439;28;91192;-30
2022/08/08 11:06:27;;;;;;;2.03;1.85;;;21.00;99.90;;;;;;4998977;28;90336;-34
2022/08/08 11:09:00;;;;;;;2.58;1.83;;;21.00;99.90;;;;;;4999652;28;88357;-31
2022/08/08 11:11:26;;;;;;;2.80;2.15;;;21.10;99.90;;;;;;5002593;28;90770;-30
2022/08/08 11:13:51;;;;;;;3.60;1.98;;;21.20;99.90;;;;;;5005852;28;89807;-33
2022/08/08 11:16:22;;;;;;;3.33;2.03;;;21.40;99.90;;;;;;4991094;28;89513;-32
2022/08/08 11:18:49;;;;;;;5.53;2.13;;;21.40;99.90;;;;;;5000169;28;90915;-31
2022/08/08 11:21:15;;;;;;;8.20;2.55;;;21.50;99.90;;;;;;4998794;28;90227;-30
2022/08/08 11:23:43;;;;;;;4.70;1.85;;;21.60;99.90;;;;;;4988197;28;89400;-34
2022/08/08 11:26:12;;;;;;;2.65;1.90;;;21.70;99.90;;;;;;5001981;28;89627;-35
2022/08/08 11:28:40;;;;;;;2.65;1.65;;;21.80;99.90;;;;;;5001636;28;88713;-32
2022/08/08 11:31:07;;;;;;;2.45;1.92;;;21.90;99.90;;;;;;5001490;28;90135;-31
2022/08/08 11:33:35;;;;;;;2.28;1.42;;;22.10;99.90;;;;;;5000293;28;90091;-32
2022/08/08 11:36:01;;;;;;;5.10;1.73;;;22.10;99.90;;;;;;5000926;28;89497;-33
2022/08/08 11:38:27;;;;;;;6.28;1.35;;;22.20;99.90;;;;;;5001310;28;90453;-33
2022/08/08 11:40:54;;;;;;;1.85;1.75;;;22.20;99.90;;;;;;5000606;28;90004;-32
2022/08/08 11:43:23;;;;;;;2.60;1.42;;;22.20;99.90;;;;;;5000767;28;90442;-31
2022/08/08 11:45:50;;;;;;;4.68;1.60;;;22.40;99.90;;;;;;5001732;28;90428;-33
2022/08/08 11:48:18;;;;;;;2.27;1.63;;;22.50;99.90;;;;;;5000866;28;89030;-32
2022/08/08 11:50:45;;;;;;;2.83;1.67;;;22.50;99.90;;;;;;5000733;28;90429;-33
2022/08/08 11:53:12;;;;;;;2.78;1.27;;;22.50;99.90;;;;;;5000409;28;89838;-32
2022/08/08 11:55:49;;;;;;;1.20;1.10;;;22.40;99.90;;;;;;5001319;28;89599;-31
2022/08/08 11:58:15;;;;;;;2.13;1.40;;;22.40;99.90;;;;;;5000609;28;89851;-30
2022/08/08 12:00:45;;;;;;;1.88;1.35;;;22.30;99.90;;;;;;4999204;28;91766;-32
2022/08/08 12:03:22;;;;;;;4.07;2.00;;;22.30;99.90;;;;;;4999792;28;89259;-31
2022/08/08 12:05:48;;;;;;;4.40;1.40;;;22.30;99.90;;;;;;5000800;28;90152;-34
2022/08/08 12:08:14;;;;;;;4.65;1.27;;;22.40;99.90;;;;;;5000391;28;88129;-31
2022/08/08 12:10:51;;;;;;;2.10;1.60;;;22.60;99.90;;;;;;4999263;28;90320;-31
2022/08/08 12:13:24;;;;;;;4.18;2.35;;;22.80;99.90;;;;;;4998848;28;90017;-34
2022/08/08 12:15:50;;;;;;;3.92;1.73;;;22.90;99.90;;;;;;5000296;28;89683;-33
2022/08/08 12:18:20;;;;;;;2.90;1.65;;;22.90;99.90;;;;;;5000461;28;89635;-32
2022/08/08 12:20:46;;;;;;;2.72;1.63;;;23.00;99.90;;;;;;5036976;22;90278;-33
2022/08/08 12:23:12;;;;;;;2.85;1.48;;;23.20;99.90;;;;;;5000289;28;89960;-32
2022/08/08 12:25:38;;;;;;;1.25;1.15;;;23.30;99.90;;;;;;5000084;28;90167;-33
2022/08/08 12:28:09;;;;;;;2.38;1.33;;;23.30;99.90;;;;;;5000459;28;89198;-34
2022/08/08 12:30:35;;;;;;;4.82;1.00;;;23.40;99.90;;;;;;4999701;28;89753;-32
2022/08/08 12:33:01;;;;;;;1.50;1.40;;;23.50;99.90;;;;;;4999997;28;90952;-31
2022/08/08 12:35:37;;;;;;;2.90;1.10;;;23.50;99.00;;;;;;4998526;28;90783;-32
2022/08/08 12:38:07;;;;;;;1.33;1.23;;;23.50;97.00;;;;;;4999918;28;87878;-34
2022/08/08 12:40:48;;;;;;;1.58;1.13;;;23.40;95.30;;;;;;5000069;28;90634;-32
2022/08/08 12:43:15;;;;;;;5.40;1.65;;;23.20;99.60;;;;;;4999860;28;90153;-34
2022/08/08 12:45:43;;;;;;;1.20;1.10;;;23.10;99.90;;;;;;5000522;28;90489;-32
2022/08/08 12:48:25;;;;;;;3.05;1.10;;;23.10;99.90;;;;;;5000312;28;88638;-35
2022/08/08 12:50:56;;;;;;;1.52;1.20;;;23.10;99.90;;;;;;4999491;28;90042;-33
2022/08/08 12:53:29;;;;;;;2.05;1.20;;;23.30;99.90;;;;;;4999177;28;90610;-32
2022/08/08 12:56:01;;;;;;;2.67;1.40;;;23.50;99.90;;;;;;5000462;28;89695;-32
2022/08/08 12:58:41;;;;;;;1.27;1.17;;;23.60;99.50;;;;;;4999569;28;89960;-34
2022/08/08 13:01:10;;;;;;;1.98;1.42;;;23.60;97.90;;;;;;5000060;28;88842;-34
2022/08/08 13:03:42;;;;;;;1.58;1.48;;;23.40;97.20;;;;;;4999772;28;89757;-34
2022/08/08 13:06:13;;;;;;;3.30;1.67;;;23.40;99.40;;;;;;5001010;28;88784;-34
2022/08/08 13:08:50;;;;;;;1.70;1.20;;;23.30;97.90;;;;;;4999760;28;88080;-32
2022/08/08 13:11:23;;;;;;;4.30;1.40;;;23.20;97.30;;;;;;4999415;28;90576;-31
2022/08/08 13:14:09;;;;;;;1.38;1.27;;;23.30;95.20;;;;;;4999529;28;90249;-32
2022/08/08 13:16:36;;;;;;;3.05;1.40;;;23.20;97.70;;;;;;5000269;28;89554;-31
2022/08/08 13:19:05;;;;;;;2.70;1.70;;;23.10;98.10;;;;;;4998943;28;90045;-33
2022/08/08 13:21:31;;;;;;;2.13;1.50;;;22.90;97.70;;;;;;4998358;28;89643;-32
2022/08/08 13:23:57;;;;;;;3.90;1.30;;;22.80;99.90;;;;;;4998865;28;91862;-32
2022/08/08 13:26:31;;;;;;;3.90;1.70;;;22.90;99.90;;;;;;4998823;28;90573;-31
2022/08/08 13:28:58;;;;;;;1.40;1.30;;;23.10;99.90;;;;;;4999864;28;87775;-32